sensor_id;sensor_type;location;lat;lon;timestamp;P1;durP1;ratioP1;P2;durP2;ratioP2
9834;SDS011;4956;50.996;13.716;2023-01-16T00:01:01;0.77;;;0.40;;
9834;SDS011;4956;50.996;13.716;2023-01-16T00:04:22;1.30;;;0.50;;
9834;SDS011;4956;50.996;13.716;2023-01-16T00:07:42;2.47;;;0.50;;
9834;SDS011;4956;50.996;13.716;2023-01-16T00:11:02;1.35;;;0.50;;
9834;SDS011;4956;50.996;13.716;2023-01-16T00:14:23;1.60;;;0.55;;
9834;SDS011;4956;50.996;13.716;2023-01-16T00:17:43;2.35;;;0.60;;
9834;SDS011;4956;50.996;13.716;2023-01-16T00:21:03;2.28;;;0.60;;
9834;SDS011;4956;50.996;13.716;2023-01-16T00:24:24;1.38;;;0.60;;
9834;SDS011;4956;50.996;13.716;2023-01-16T00:27:46;1.35;;;0.65;;
9834;SDS011;4956;50.996;13.716;2023-01-16T00:31:07;1.15;;;0.45;;
9834;SDS011;4956;50.996;13.716;2023-01-16T00:34:27;1.48;;;0.52;;
9834;SDS011;4956;50.996;13.716;2023-01-16T00:37:48;1.35;;;0.60;;
9834;SDS011;4956;50.996;13.716;2023-01-16T00:41:08;0.85;;;0.45;;
9834;SDS011;4956;50.996;13.716;2023-01-16T00:44:28;1.90;;;0.60;;
9834;SDS011;4956;50.996;13.716;2023-01-16T00:47:49;0.95;;;0.52;;
9834;SDS011;4956;50.996;13.716;2023-01-16T00:51:09;2.70;;;0.60;;
9834;SDS011;4956;50.996;13.716;2023-01-16T00:54:29;3.20;;;0.65;;
9834;SDS011;4956;50.996;13.716;2023-01-16T00:57:50;2.40;;;0.70;;
9834;SDS011;4956;50.996;13.716;2023-01-16T01:01:10;3.33;;;0.70;;
9834;SDS011;4956;50.996;13.716;2023-01-16T01:04:30;1.70;;;0.40;;
9834;SDS011;4956;50.996;13.716;2023-01-16T01:07:51;1.02;;;0.60;;
9834;SDS011;4956;50.996;13.716;2023-01-16T01:11:12;1.52;;;0.52;;
9834;SDS011;4956;50.996;13.716;2023-01-16T01:14:34;1.88;;;0.70;;
9834;SDS011;4956;50.996;13.716;2023-01-16T01:17:54;1.63;;;0.60;;
9834;SDS011;4956;50.996;13.716;2023-01-16T01:21:14;2.55;;;0.65;;
9834;SDS011;4956;50.996;13.716;2023-01-16T01:24:34;1.67;;;0.70;;
9834;SDS011;4956;50.996;13.716;2023-01-16T01:27:55;2.45;;;0.75;;
9834;SDS011;4956;50.996;13.716;2023-01-16T01:31:15;1.88;;;0.65;;
9834;SDS011;4956;50.996;13.716;2023-01-16T01:34:35;1.85;;;0.60;;
9834;SDS011;4956;50.996;13.716;2023-01-16T01:37:56;2.33;;;0.50;;
9834;SDS011;4956;50.996;13.716;2023-01-16T01:41:16;2.63;;;0.50;;
9834;SDS011;4956;50.996;13.716;2023-01-16T01:44:44;2.10;;;0.70;;
9834;SDS011;4956;50.996;13.716;2023-01-16T01:51:32;1.80;;;0.70;;
9834;SDS011;4956;50.996;13.716;2023-01-16T01:54:56;1.15;;;0.60;;
9834;SDS011;4956;50.996;13.716;2023-01-16T01:58:20;2.35;;;0.52;;
9834;SDS011;4956;50.996;13.716;2023-01-16T02:01:45;1.60;;;0.60;;
9834;SDS011;4956;50.996;13.716;2023-01-16T02:05:06;3.03;;;0.70;;
9834;SDS011;4956;50.996;13.716;2023-01-16T02:08:29;2.60;;;0.77;;
9834;SDS011;4956;50.996;13.716;2023-01-16T02:11:53;1.10;;;0.57;;
9834;SDS011;4956;50.996;13.716;2023-01-16T02:15:24;1.25;;;0.50;;
9834;SDS011;4956;50.996;13.716;2023-01-16T02:18:45;2.83;;;0.70;;
9834;SDS011;4956;50.996;13.716;2023-01-16T02:22:38;2.28;;;0.70;;
9834;SDS011;4956;50.996;13.716;2023-01-16T02:41:10;2.45;;;0.50;;
9834;SDS011;4956;50.996;13.716;2023-01-16T02:48:06;0.95;;;0.60;;
9834;SDS011;4956;50.996;13.716;2023-01-16T02:51:33;1.73;;;0.68;;
9834;SDS011;4956;50.996;13.716;2023-01-16T02:55:01;1.60;;;0.73;;
9834;SDS011;4956;50.996;13.716;2023-01-16T02:58:24;1.17;;;0.57;;
9834;SDS011;4956;50.996;13.716;2023-01-16T03:01:48;1.40;;;0.80;;
9834;SDS011;4956;50.996;13.716;2023-01-16T03:05:09;1.90;;;0.80;;
9834;SDS011;4956;50.996;13.716;2023-01-16T03:08:33;2.38;;;0.88;;
9834;SDS011;4956;50.996;13.716;2023-01-16T03:12:09;0.63;;;0.60;;
9834;SDS011;4956;50.996;13.716;2023-01-16T03:15:39;1.70;;;0.60;;
9834;SDS011;4956;50.996;13.716;2023-01-16T03:22:50;2.10;;;0.75;;
9834;SDS011;4956;50.996;13.716;2023-01-16T03:26:19;2.13;;;0.70;;
9834;SDS011;4956;50.996;13.716;2023-01-16T03:29:50;1.85;;;0.70;;
9834;SDS011;4956;50.996;13.716;2023-01-16T03:33:19;3.42;;;0.80;;
9834;SDS011;4956;50.996;13.716;2023-01-16T03:36:44;1.25;;;0.70;;
9834;SDS011;4956;50.996;13.716;2023-01-16T03:40:11;2.03;;;0.90;;
9834;SDS011;4956;50.996;13.716;2023-01-16T03:43:37;1.20;;;0.70;;
9834;SDS011;4956;50.996;13.716;2023-01-16T03:46:58;2.88;;;1.08;;
9834;SDS011;4956;50.996;13.716;2023-01-16T03:50:20;2.22;;;1.10;;
9834;SDS011;4956;50.996;13.716;2023-01-16T03:53:43;1.60;;;1.00;;
9834;SDS011;4956;50.996;13.716;2023-01-16T03:57:07;2.13;;;1.27;;
9834;SDS011;4956;50.996;13.716;2023-01-16T04:00:31;3.95;;;1.08;;
9834;SDS011;4956;50.996;13.716;2023-01-16T04:04:03;2.58;;;1.27;;
9834;SDS011;4956;50.996;13.716;2023-01-16T04:07:30;5.05;;;1.60;;
9834;SDS011;4956;50.996;13.716;2023-01-16T04:10:55;4.28;;;1.60;;
9834;SDS011;4956;50.996;13.716;2023-01-16T04:14:15;2.65;;;1.38;;
9834;SDS011;4956;50.996;13.716;2023-01-16T04:17:38;4.00;;;1.70;;
9834;SDS011;4956;50.996;13.716;2023-01-16T04:20:59;5.85;;;2.10;;
9834;SDS011;4956;50.996;13.716;2023-01-16T04:24:20;4.38;;;1.90;;
9834;SDS011;4956;50.996;13.716;2023-01-16T04:27:41;1.92;;;1.63;;
9834;SDS011;4956;50.996;13.716;2023-01-16T04:31:01;3.95;;;1.75;;
9834;SDS011;4956;50.996;13.716;2023-01-16T04:34:21;3.83;;;1.80;;
9834;SDS011;4956;50.996;13.716;2023-01-16T04:37:42;2.40;;;1.60;;
9834;SDS011;4956;50.996;13.716;2023-01-16T04:41:02;4.18;;;1.70;;
9834;SDS011;4956;50.996;13.716;2023-01-16T04:44:23;3.47;;;1.60;;
9834;SDS011;4956;50.996;13.716;2023-01-16T04:47:47;2.20;;;1.58;;
9834;SDS011;4956;50.996;13.716;2023-01-16T04:51:09;2.55;;;1.58;;
9834;SDS011;4956;50.996;13.716;2023-01-16T04:54:29;4.00;;;1.80;;
9834;SDS011;4956;50.996;13.716;2023-01-16T04:57:49;3.10;;;1.55;;
9834;SDS011;4956;50.996;13.716;2023-01-16T05:01:10;2.47;;;1.67;;
9834;SDS011;4956;50.996;13.716;2023-01-16T05:04:30;2.85;;;1.50;;
9834;SDS011;4956;50.996;13.716;2023-01-16T05:07:50;5.65;;;1.70;;
9834;SDS011;4956;50.996;13.716;2023-01-16T05:11:31;5.68;;;1.90;;
9834;SDS011;4956;50.996;13.716;2023-01-16T05:14:52;4.95;;;1.90;;
9834;SDS011;4956;50.996;13.716;2023-01-16T05:18:12;3.80;;;2.10;;
9834;SDS011;4956;50.996;13.716;2023-01-16T05:21:33;4.10;;;2.30;;
9834;SDS011;4956;50.996;13.716;2023-01-16T05:24:54;3.28;;;2.30;;
9834;SDS011;4956;50.996;13.716;2023-01-16T05:28:14;3.33;;;2.10;;
9834;SDS011;4956;50.996;13.716;2023-01-16T05:31:34;3.33;;;2.30;;
9834;SDS011;4956;50.996;13.716;2023-01-16T05:34:55;2.83;;;2.10;;
9834;SDS011;4956;50.996;13.716;2023-01-16T05:38:15;6.03;;;2.53;;
9834;SDS011;4956;50.996;13.716;2023-01-16T05:41:35;4.65;;;2.60;;
9834;SDS011;4956;50.996;13.716;2023-01-16T05:44:55;4.25;;;2.60;;
9834;SDS011;4956;50.996;13.716;2023-01-16T05:48:16;3.67;;;2.70;;
9834;SDS011;4956;50.996;13.716;2023-01-16T05:51:36;4.40;;;3.00;;
9834;SDS011;4956;50.996;13.716;2023-01-16T05:54:56;3.05;;;2.50;;
9834;SDS011;4956;50.996;13.716;2023-01-16T05:58:17;3.63;;;2.67;;
9834;SDS011;4956;50.996;13.716;2023-01-16T06:01:37;4.93;;;2.80;;
9834;SDS011;4956;50.996;13.716;2023-01-16T06:04:57;5.20;;;3.10;;
9834;SDS011;4956;50.996;13.716;2023-01-16T06:08:17;3.70;;;2.83;;
9834;SDS011;4956;50.996;13.716;2023-01-16T06:11:38;3.55;;;2.28;;
9834;SDS011;4956;50.996;13.716;2023-01-16T06:14:58;2.58;;;2.13;;
9834;SDS011;4956;50.996;13.716;2023-01-16T06:18:18;3.35;;;2.22;;
9834;SDS011;4956;50.996;13.716;2023-01-16T06:21:39;3.03;;;2.17;;
9834;SDS011;4956;50.996;13.716;2023-01-16T06:24:59;3.42;;;2.40;;
9834;SDS011;4956;50.996;13.716;2023-01-16T06:28:19;3.97;;;2.20;;
9834;SDS011;4956;50.996;13.716;2023-01-16T06:31:39;5.43;;;2.10;;
9834;SDS011;4956;50.996;13.716;2023-01-16T06:35:00;2.42;;;1.60;;
9834;SDS011;4956;50.996;13.716;2023-01-16T06:38:20;2.53;;;1.50;;
9834;SDS011;4956;50.996;13.716;2023-01-16T06:41:40;3.78;;;1.70;;
9834;SDS011;4956;50.996;13.716;2023-01-16T06:45:01;3.67;;;2.55;;
9834;SDS011;4956;50.996;13.716;2023-01-16T06:48:22;3.75;;;1.30;;
9834;SDS011;4956;50.996;13.716;2023-01-16T06:51:42;3.13;;;1.30;;
9834;SDS011;4956;50.996;13.716;2023-01-16T06:55:04;2.13;;;1.10;;
9834;SDS011;4956;50.996;13.716;2023-01-16T06:58:24;4.00;;;1.33;;
9834;SDS011;4956;50.996;13.716;2023-01-16T07:01:45;3.45;;;1.40;;
9834;SDS011;4956;50.996;13.716;2023-01-16T07:05:08;2.97;;;1.80;;
9834;SDS011;4956;50.996;13.716;2023-01-16T07:08:29;2.95;;;1.60;;
9834;SDS011;4956;50.996;13.716;2023-01-16T07:11:50;2.08;;;1.52;;
9834;SDS011;4956;50.996;13.716;2023-01-16T07:15:10;4.15;;;1.58;;
9834;SDS011;4956;50.996;13.716;2023-01-16T07:18:49;3.50;;;1.50;;
9834;SDS011;4956;50.996;13.716;2023-01-16T07:22:27;6.35;;;1.58;;
9834;SDS011;4956;50.996;13.716;2023-01-16T07:26:03;2.97;;;1.42;;
9834;SDS011;4956;50.996;13.716;2023-01-16T07:29:26;2.47;;;1.67;;
9834;SDS011;4956;50.996;13.716;2023-01-16T07:32:48;2.40;;;1.52;;
9834;SDS011;4956;50.996;13.716;2023-01-16T07:36:11;3.67;;;1.73;;
9834;SDS011;4956;50.996;13.716;2023-01-16T07:39:31;3.35;;;1.77;;
9834;SDS011;4956;50.996;13.716;2023-01-16T07:42:51;3.45;;;1.75;;
9834;SDS011;4956;50.996;13.716;2023-01-16T07:46:12;2.53;;;1.70;;
9834;SDS011;4956;50.996;13.716;2023-01-16T07:49:32;1.60;;;1.48;;
9834;SDS011;4956;50.996;13.716;2023-01-16T07:52:53;4.18;;;1.85;;
9834;SDS011;4956;50.996;13.716;2023-01-16T07:56:13;3.30;;;1.38;;
9834;SDS011;4956;50.996;13.716;2023-01-16T07:59:33;4.28;;;1.40;;
9834;SDS011;4956;50.996;13.716;2023-01-16T08:02:53;3.88;;;1.33;;
9834;SDS011;4956;50.996;13.716;2023-01-16T08:06:14;2.25;;;1.25;;
9834;SDS011;4956;50.996;13.716;2023-01-16T08:09:34;2.15;;;1.27;;
9834;SDS011;4956;50.996;13.716;2023-01-16T08:12:54;2.83;;;1.23;;
9834;SDS011;4956;50.996;13.716;2023-01-16T08:16:15;4.47;;;1.40;;
9834;SDS011;4956;50.996;13.716;2023-01-16T08:19:35;2.35;;;1.27;;
9834;SDS011;4956;50.996;13.716;2023-01-16T08:22:55;5.47;;;1.40;;
9834;SDS011;4956;50.996;13.716;2023-01-16T08:26:17;2.28;;;1.33;;
9834;SDS011;4956;50.996;13.716;2023-01-16T08:29:38;3.80;;;1.17;;
9834;SDS011;4956;50.996;13.716;2023-01-16T08:32:59;2.25;;;1.25;;
9834;SDS011;4956;50.996;13.716;2023-01-16T08:36:19;1.63;;;1.10;;
9834;SDS011;4956;50.996;13.716;2023-01-16T08:39:40;3.03;;;1.33;;
9834;SDS011;4956;50.996;13.716;2023-01-16T08:43:01;2.78;;;1.00;;
9834;SDS011;4956;50.996;13.716;2023-01-16T08:46:40;2.65;;;1.00;;
9834;SDS011;4956;50.996;13.716;2023-01-16T08:50:19;3.38;;;1.05;;
9834;SDS011;4956;50.996;13.716;2023-01-16T08:53:58;3.08;;;1.00;;
9834;SDS011;4956;50.996;13.716;2023-01-16T08:57:18;1.88;;;0.93;;
9834;SDS011;4956;50.996;13.716;2023-01-16T09:00:39;4.47;;;1.70;;
9834;SDS011;4956;50.996;13.716;2023-01-16T09:03:59;2.90;;;1.30;;
9834;SDS011;4956;50.996;13.716;2023-01-16T09:07:20;2.58;;;1.10;;
9834;SDS011;4956;50.996;13.716;2023-01-16T09:10:40;2.05;;;1.08;;
9834;SDS011;4956;50.996;13.716;2023-01-16T09:14:20;3.30;;;1.20;;
9834;SDS011;4956;50.996;13.716;2023-01-16T09:17:41;3.33;;;1.05;;
9834;SDS011;4956;50.996;13.716;2023-01-16T09:21:01;1.30;;;1.00;;
9834;SDS011;4956;50.996;13.716;2023-01-16T09:24:21;3.20;;;1.20;;
9834;SDS011;4956;50.996;13.716;2023-01-16T09:27:43;3.97;;;1.33;;
9834;SDS011;4956;50.996;13.716;2023-01-16T09:31:06;2.33;;;1.05;;
9834;SDS011;4956;50.996;13.716;2023-01-16T09:34:26;1.42;;;0.82;;
9834;SDS011;4956;50.996;13.716;2023-01-16T09:37:46;2.58;;;1.10;;
9834;SDS011;4956;50.996;13.716;2023-01-16T09:41:08;3.33;;;1.13;;
9834;SDS011;4956;50.996;13.716;2023-01-16T09:44:30;2.75;;;1.70;;
9834;SDS011;4956;50.996;13.716;2023-01-16T09:47:52;3.65;;;1.27;;
9834;SDS011;4956;50.996;13.716;2023-01-16T09:51:16;2.03;;;0.70;;
9834;SDS011;4956;50.996;13.716;2023-01-16T09:54:41;0.85;;;0.70;;
9834;SDS011;4956;50.996;13.716;2023-01-16T09:58:25;2.75;;;0.82;;
9834;SDS011;4956;50.996;13.716;2023-01-16T10:01:56;1.42;;;0.80;;
9834;SDS011;4956;50.996;13.716;2023-01-16T10:05:22;2.90;;;0.80;;
9834;SDS011;4956;50.996;13.716;2023-01-16T10:12:31;2.13;;;0.90;;
9834;SDS011;4956;50.996;13.716;2023-01-16T10:19:27;2.35;;;0.90;;
9834;SDS011;4956;50.996;13.716;2023-01-16T10:31:00;1.90;;;0.80;;
9834;SDS011;4956;50.996;13.716;2023-01-16T10:34:26;2.47;;;0.98;;
9834;SDS011;4956;50.996;13.716;2023-01-16T10:37:50;2.00;;;0.77;;
9834;SDS011;4956;50.996;13.716;2023-01-16T10:41:22;2.55;;;0.60;;
9834;SDS011;4956;50.996;13.716;2023-01-16T10:45:20;1.25;;;0.50;;
9834;SDS011;4956;50.996;13.716;2023-01-16T10:49:02;1.52;;;0.50;;
9834;SDS011;4956;50.996;13.716;2023-01-16T10:52:41;1.88;;;0.50;;
9834;SDS011;4956;50.996;13.716;2023-01-16T10:56:03;1.67;;;0.38;;
9834;SDS011;4956;50.996;13.716;2023-01-16T10:59:24;2.17;;;0.55;;
9834;SDS011;4956;50.996;13.716;2023-01-16T11:02:48;2.20;;;0.60;;
9834;SDS011;4956;50.996;13.716;2023-01-16T11:06:11;2.05;;;0.60;;
9834;SDS011;4956;50.996;13.716;2023-01-16T11:09:35;1.25;;;0.50;;
9834;SDS011;4956;50.996;13.716;2023-01-16T11:12:56;1.10;;;0.50;;
9834;SDS011;4956;50.996;13.716;2023-01-16T11:16:36;2.83;;;0.73;;
9834;SDS011;4956;50.996;13.716;2023-01-16T11:24:43;2.30;;;0.77;;
9834;SDS011;4956;50.996;13.716;2023-01-16T11:27:43;1.63;;;0.60;;
9834;SDS011;4956;50.996;13.716;2023-01-16T11:31:11;1.63;;;0.65;;
9834;SDS011;4956;50.996;13.716;2023-01-16T11:34:35;1.60;;;0.57;;
9834;SDS011;4956;50.996;13.716;2023-01-16T11:37:56;2.00;;;0.80;;
9834;SDS011;4956;50.996;13.716;2023-01-16T11:41:19;0.90;;;0.55;;
9834;SDS011;4956;50.996;13.716;2023-01-16T11:44:40;2.05;;;0.70;;
9834;SDS011;4956;50.996;13.716;2023-01-16T11:48:20;2.13;;;0.90;;
9834;SDS011;4956;50.996;13.716;2023-01-16T11:51:43;2.60;;;0.90;;
9834;SDS011;4956;50.996;13.716;2023-01-16T11:55:04;3.00;;;1.00;;
9834;SDS011;4956;50.996;13.716;2023-01-16T12:09:45;2.00;;;1.05;;
9834;SDS011;4956;50.996;13.716;2023-01-16T12:13:28;3.13;;;1.20;;
9834;SDS011;4956;50.996;13.716;2023-01-16T12:21:16;5.05;;;1.75;;
9834;SDS011;4956;50.996;13.716;2023-01-16T12:39:30;3.20;;;1.83;;
9834;SDS011;4956;50.996;13.716;2023-01-16T12:43:10;5.70;;;1.55;;
9834;SDS011;4956;50.996;13.716;2023-01-16T12:46:42;4.00;;;1.63;;
9834;SDS011;4956;50.996;13.716;2023-01-16T12:50:15;3.88;;;1.80;;
9834;SDS011;4956;50.996;13.716;2023-01-16T12:53:54;4.60;;;1.77;;
9834;SDS011;4956;50.996;13.716;2023-01-16T12:57:33;3.88;;;2.10;;
9834;SDS011;4956;50.996;13.716;2023-01-16T13:01:10;4.82;;;2.10;;
9834;SDS011;4956;50.996;13.716;2023-01-16T13:04:34;4.82;;;1.95;;
9834;SDS011;4956;50.996;13.716;2023-01-16T13:08:11;6.85;;;2.10;;
9834;SDS011;4956;50.996;13.716;2023-01-16T13:11:48;6.25;;;2.00;;
9834;SDS011;4956;50.996;13.716;2023-01-16T13:15:35;4.65;;;2.00;;
9834;SDS011;4956;50.996;13.716;2023-01-16T13:18:58;3.10;;;1.80;;
9834;SDS011;4956;50.996;13.716;2023-01-16T13:22:29;4.90;;;1.88;;
9834;SDS011;4956;50.996;13.716;2023-01-16T13:26:00;4.28;;;1.77;;
9834;SDS011;4956;50.996;13.716;2023-01-16T13:29:25;5.18;;;1.65;;
9834;SDS011;4956;50.996;13.716;2023-01-16T13:36:34;4.32;;;2.50;;
9834;SDS011;4956;50.996;13.716;2023-01-16T13:40:11;2.83;;;1.58;;
9834;SDS011;4956;50.996;13.716;2023-01-16T13:44:14;3.03;;;1.52;;
9834;SDS011;4956;50.996;13.716;2023-01-16T13:48:02;3.50;;;1.70;;
9834;SDS011;4956;50.996;13.716;2023-01-16T13:51:22;4.40;;;1.77;;
9834;SDS011;4956;50.996;13.716;2023-01-16T13:54:47;3.15;;;1.58;;
9834;SDS011;4956;50.996;13.716;2023-01-16T13:58:29;3.92;;;2.10;;
9834;SDS011;4956;50.996;13.716;2023-01-16T14:01:53;3.55;;;1.63;;
9834;SDS011;4956;50.996;13.716;2023-01-16T14:05:18;2.30;;;1.63;;
9834;SDS011;4956;50.996;13.716;2023-01-16T14:12:34;2.67;;;1.60;;
9834;SDS011;4956;50.996;13.716;2023-01-16T14:15:56;5.05;;;1.50;;
9834;SDS011;4956;50.996;13.716;2023-01-16T14:19:55;5.45;;;1.40;;
9834;SDS011;4956;50.996;13.716;2023-01-16T14:23:25;5.50;;;1.67;;
9834;SDS011;4956;50.996;13.716;2023-01-16T14:27:14;3.30;;;1.58;;
9834;SDS011;4956;50.996;13.716;2023-01-16T14:30:36;4.00;;;1.77;;
9834;SDS011;4956;50.996;13.716;2023-01-16T14:33:58;3.90;;;2.00;;
9834;SDS011;4956;50.996;13.716;2023-01-16T14:41:15;6.18;;;1.40;;
9834;SDS011;4956;50.996;13.716;2023-01-16T14:48:40;6.35;;;1.15;;
9834;SDS011;4956;50.996;13.716;2023-01-16T14:52:19;5.70;;;1.60;;
9834;SDS011;4956;50.996;13.716;2023-01-16T14:56:19;2.83;;;1.30;;
9834;SDS011;4956;50.996;13.716;2023-01-16T14:59:49;3.15;;;1.40;;
9834;SDS011;4956;50.996;13.716;2023-01-16T15:03:16;3.38;;;1.20;;
9834;SDS011;4956;50.996;13.716;2023-01-16T15:06:42;4.22;;;1.40;;
9834;SDS011;4956;50.996;13.716;2023-01-16T15:10:10;4.63;;;1.48;;
9834;SDS011;4956;50.996;13.716;2023-01-16T15:13:34;3.40;;;1.35;;
9834;SDS011;4956;50.996;13.716;2023-01-16T15:17:17;3.25;;;2.00;;
9834;SDS011;4956;50.996;13.716;2023-01-16T15:21:00;5.60;;;2.58;;
9834;SDS011;4956;50.996;13.716;2023-01-16T15:24:39;7.03;;;3.20;;
9834;SDS011;4956;50.996;13.716;2023-01-16T15:28:08;3.88;;;1.92;;
9834;SDS011;4956;50.996;13.716;2023-01-16T15:31:35;2.97;;;1.58;;
9834;SDS011;4956;50.996;13.716;2023-01-16T15:35:06;2.30;;;1.50;;
9834;SDS011;4956;50.996;13.716;2023-01-16T15:38:34;2.28;;;1.35;;
9834;SDS011;4956;50.996;13.716;2023-01-16T15:41:58;3.03;;;1.70;;
9834;SDS011;4956;50.996;13.716;2023-01-16T15:45:49;4.32;;;1.55;;
9834;SDS011;4956;50.996;13.716;2023-01-16T15:49:34;4.68;;;1.55;;
9834;SDS011;4956;50.996;13.716;2023-01-16T15:53:01;4.30;;;1.85;;
9834;SDS011;4956;50.996;13.716;2023-01-16T15:56:32;4.20;;;1.55;;
9834;SDS011;4956;50.996;13.716;2023-01-16T15:59:55;4.40;;;1.85;;
9834;SDS011;4956;50.996;13.716;2023-01-16T16:03:17;3.58;;;1.80;;
9834;SDS011;4956;50.996;13.716;2023-01-16T16:06:43;4.22;;;1.88;;
9834;SDS011;4956;50.996;13.716;2023-01-16T16:10:04;4.10;;;1.98;;
9834;SDS011;4956;50.996;13.716;2023-01-16T16:13:26;5.18;;;2.20;;
9834;SDS011;4956;50.996;13.716;2023-01-16T16:16:58;5.60;;;2.40;;
9834;SDS011;4956;50.996;13.716;2023-01-16T16:21:03;4.75;;;1.98;;
9834;SDS011;4956;50.996;13.716;2023-01-16T16:24:25;6.18;;;2.75;;
9834;SDS011;4956;50.996;13.716;2023-01-16T16:27:46;7.10;;;3.00;;
9834;SDS011;4956;50.996;13.716;2023-01-16T16:31:12;4.63;;;2.35;;
9834;SDS011;4956;50.996;13.716;2023-01-16T16:34:34;6.90;;;2.80;;
9834;SDS011;4956;50.996;13.716;2023-01-16T16:37:55;6.00;;;2.58;;
9834;SDS011;4956;50.996;13.716;2023-01-16T16:44:40;10.40;;;2.95;;
9834;SDS011;4956;50.996;13.716;2023-01-16T16:48:18;4.47;;;2.30;;
9834;SDS011;4956;50.996;13.716;2023-01-16T16:51:49;5.22;;;2.30;;
9834;SDS011;4956;50.996;13.716;2023-01-16T16:55:24;4.75;;;2.08;;
9834;SDS011;4956;50.996;13.716;2023-01-16T16:58:47;4.15;;;2.05;;
9834;SDS011;4956;50.996;13.716;2023-01-16T17:02:08;3.17;;;1.73;;
9834;SDS011;4956;50.996;13.716;2023-01-16T17:05:29;5.25;;;2.45;;
9834;SDS011;4956;50.996;13.716;2023-01-16T17:08:50;4.63;;;2.03;;
9834;SDS011;4956;50.996;13.716;2023-01-16T17:12:12;4.70;;;2.10;;
9834;SDS011;4956;50.996;13.716;2023-01-16T17:15:34;4.70;;;2.47;;
9834;SDS011;4956;50.996;13.716;2023-01-16T17:19:02;4.53;;;2.13;;
9834;SDS011;4956;50.996;13.716;2023-01-16T17:22:26;5.43;;;2.80;;
9834;SDS011;4956;50.996;13.716;2023-01-16T17:25:46;4.05;;;2.85;;
9834;SDS011;4956;50.996;13.716;2023-01-16T17:29:07;5.72;;;2.83;;
9834;SDS011;4956;50.996;13.716;2023-01-16T17:32:28;3.75;;;2.00;;
9834;SDS011;4956;50.996;13.716;2023-01-16T17:35:52;4.68;;;2.42;;
9834;SDS011;4956;50.996;13.716;2023-01-16T17:39:30;3.40;;;1.83;;
9834;SDS011;4956;50.996;13.716;2023-01-16T17:42:51;3.28;;;2.15;;
9834;SDS011;4956;50.996;13.716;2023-01-16T17:46:30;4.68;;;2.40;;
9834;SDS011;4956;50.996;13.716;2023-01-16T17:49:50;3.83;;;1.90;;
9834;SDS011;4956;50.996;13.716;2023-01-16T17:53:29;4.65;;;2.50;;
9834;SDS011;4956;50.996;13.716;2023-01-16T17:56:50;3.25;;;2.15;;
9834;SDS011;4956;50.996;13.716;2023-01-16T18:00:10;3.20;;;2.05;;
9834;SDS011;4956;50.996;13.716;2023-01-16T18:03:32;3.85;;;2.20;;
9834;SDS011;4956;50.996;13.716;2023-01-16T18:06:53;3.05;;;1.58;;
9834;SDS011;4956;50.996;13.716;2023-01-16T18:10:13;2.42;;;1.73;;
9834;SDS011;4956;50.996;13.716;2023-01-16T18:13:35;2.63;;;1.83;;
9834;SDS011;4956;50.996;13.716;2023-01-16T18:17:15;3.05;;;1.80;;
9834;SDS011;4956;50.996;13.716;2023-01-16T18:20:46;2.72;;;1.67;;
9834;SDS011;4956;50.996;13.716;2023-01-16T18:24:06;2.58;;;1.40;;
9834;SDS011;4956;50.996;13.716;2023-01-16T18:27:27;2.15;;;1.63;;
9834;SDS011;4956;50.996;13.716;2023-01-16T18:30:47;3.63;;;2.50;;
9834;SDS011;4956;50.996;13.716;2023-01-16T18:34:07;3.22;;;1.50;;
9834;SDS011;4956;50.996;13.716;2023-01-16T18:37:31;2.70;;;1.55;;
9834;SDS011;4956;50.996;13.716;2023-01-16T18:40:59;3.95;;;2.15;;
9834;SDS011;4956;50.996;13.716;2023-01-16T18:44:39;2.97;;;2.30;;
9834;SDS011;4956;50.996;13.716;2023-01-16T18:48:18;3.20;;;2.15;;
9834;SDS011;4956;50.996;13.716;2023-01-16T18:51:57;2.92;;;2.10;;
9834;SDS011;4956;50.996;13.716;2023-01-16T18:55:46;4.20;;;2.55;;
9834;SDS011;4956;50.996;13.716;2023-01-16T18:59:26;4.35;;;2.78;;
9834;SDS011;4956;50.996;13.716;2023-01-16T19:03:08;3.85;;;2.58;;
9834;SDS011;4956;50.996;13.716;2023-01-16T19:06:29;4.95;;;3.10;;
9834;SDS011;4956;50.996;13.716;2023-01-16T19:09:51;5.97;;;2.90;;
9834;SDS011;4956;50.996;13.716;2023-01-16T19:13:13;3.55;;;2.55;;
9834;SDS011;4956;50.996;13.716;2023-01-16T19:16:33;4.57;;;2.83;;
9834;SDS011;4956;50.996;13.716;2023-01-16T19:20:07;3.00;;;2.47;;
9834;SDS011;4956;50.996;13.716;2023-01-16T19:23:29;4.45;;;3.03;;
9834;SDS011;4956;50.996;13.716;2023-01-16T19:26:49;3.70;;;2.30;;
9834;SDS011;4956;50.996;13.716;2023-01-16T19:30:10;4.07;;;2.70;;
9834;SDS011;4956;50.996;13.716;2023-01-16T19:33:31;5.53;;;3.28;;
9834;SDS011;4956;50.996;13.716;2023-01-16T19:36:52;4.38;;;2.42;;
9834;SDS011;4956;50.996;13.716;2023-01-16T19:40:13;3.95;;;2.42;;
9834;SDS011;4956;50.996;13.716;2023-01-16T19:43:34;3.78;;;2.10;;
9834;SDS011;4956;50.996;13.716;2023-01-16T19:47:14;3.53;;;1.95;;
9834;SDS011;4956;50.996;13.716;2023-01-16T19:50:34;4.15;;;2.42;;
9834;SDS011;4956;50.996;13.716;2023-01-16T19:53:54;3.28;;;2.60;;
9834;SDS011;4956;50.996;13.716;2023-01-16T19:57:15;5.10;;;2.42;;
9834;SDS011;4956;50.996;13.716;2023-01-16T20:00:35;4.25;;;2.13;;
9834;SDS011;4956;50.996;13.716;2023-01-16T20:03:55;3.17;;;2.15;;
9834;SDS011;4956;50.996;13.716;2023-01-16T20:07:16;4.68;;;2.53;;
9834;SDS011;4956;50.996;13.716;2023-01-16T20:10:36;2.85;;;2.03;;
9834;SDS011;4956;50.996;13.716;2023-01-16T20:13:57;2.83;;;2.30;;
9834;SDS011;4956;50.996;13.716;2023-01-16T20:17:19;5.18;;;2.20;;
9834;SDS011;4956;50.996;13.716;2023-01-16T20:20:40;3.72;;;2.42;;
9834;SDS011;4956;50.996;13.716;2023-01-16T20:24:01;2.90;;;2.55;;
9834;SDS011;4956;50.996;13.716;2023-01-16T20:27:22;3.47;;;2.60;;
9834;SDS011;4956;50.996;13.716;2023-01-16T20:30:42;3.95;;;2.53;;
9834;SDS011;4956;50.996;13.716;2023-01-16T20:34:07;4.82;;;3.08;;
9834;SDS011;4956;50.996;13.716;2023-01-16T20:37:28;4.07;;;2.80;;
9834;SDS011;4956;50.996;13.716;2023-01-16T20:40:48;3.92;;;3.20;;
9834;SDS011;4956;50.996;13.716;2023-01-16T20:44:16;4.18;;;3.22;;
9834;SDS011;4956;50.996;13.716;2023-01-16T20:47:56;3.55;;;2.90;;
9834;SDS011;4956;50.996;13.716;2023-01-16T20:51:17;3.22;;;2.80;;
9834;SDS011;4956;50.996;13.716;2023-01-16T20:54:38;4.47;;;3.00;;
9834;SDS011;4956;50.996;13.716;2023-01-16T20:57:58;4.40;;;3.30;;
9834;SDS011;4956;50.996;13.716;2023-01-16T21:01:18;4.72;;;3.15;;
9834;SDS011;4956;50.996;13.716;2023-01-16T21:04:39;4.07;;;3.35;;
9834;SDS011;4956;50.996;13.716;2023-01-16T21:07:59;5.15;;;3.55;;
9834;SDS011;4956;50.996;13.716;2023-01-16T21:11:20;6.07;;;3.60;;
9834;SDS011;4956;50.996;13.716;2023-01-16T21:14:59;6.15;;;3.65;;
9834;SDS011;4956;50.996;13.716;2023-01-16T21:18:19;5.85;;;3.45;;
9834;SDS011;4956;50.996;13.716;2023-01-16T21:21:58;5.28;;;2.83;;
9834;SDS011;4956;50.996;13.716;2023-01-16T21:25:18;4.80;;;3.20;;
9834;SDS011;4956;50.996;13.716;2023-01-16T21:28:42;4.93;;;2.92;;
9834;SDS011;4956;50.996;13.716;2023-01-16T21:32:02;3.38;;;2.85;;
9834;SDS011;4956;50.996;13.716;2023-01-16T21:35:24;5.40;;;3.42;;
9834;SDS011;4956;50.996;13.716;2023-01-16T21:38:44;5.03;;;3.00;;
9834;SDS011;4956;50.996;13.716;2023-01-16T21:42:04;3.75;;;2.72;;
9834;SDS011;4956;50.996;13.716;2023-01-16T21:45:43;7.45;;;2.85;;
9834;SDS011;4956;50.996;13.716;2023-01-16T21:49:39;4.78;;;2.60;;
9834;SDS011;4956;50.996;13.716;2023-01-16T21:52:59;5.18;;;3.28;;
9834;SDS011;4956;50.996;13.716;2023-01-16T21:56:22;4.50;;;2.80;;
9834;SDS011;4956;50.996;13.716;2023-01-16T21:59:42;4.35;;;2.45;;
9834;SDS011;4956;50.996;13.716;2023-01-16T22:03:03;2.97;;;2.42;;
9834;SDS011;4956;50.996;13.716;2023-01-16T22:06:24;4.35;;;2.70;;
9834;SDS011;4956;50.996;13.716;2023-01-16T22:09:44;4.20;;;2.88;;
9834;SDS011;4956;50.996;13.716;2023-01-16T22:13:05;4.47;;;2.60;;
9834;SDS011;4956;50.996;13.716;2023-01-16T22:16:43;4.28;;;2.63;;
9834;SDS011;4956;50.996;13.716;2023-01-16T22:20:23;4.43;;;2.67;;
9834;SDS011;4956;50.996;13.716;2023-01-16T22:23:43;4.07;;;2.60;;
9834;SDS011;4956;50.996;13.716;2023-01-16T22:27:03;4.43;;;3.15;;
9834;SDS011;4956;50.996;13.716;2023-01-16T22:30:25;4.45;;;2.58;;